createdAt,value
2023-02-13T00:03:36.805Z,22.20
2023-02-13T00:06:24.284Z,23.15
2023-02-13T00:09:11.469Z,19.73
2023-02-13T00:11:58.846Z,18.00
2023-02-13T00:14:45.920Z,17.90
2023-02-13T00:17:33.608Z,18.27
2023-02-13T00:20:20.848Z,20.23
2023-02-13T00:23:08.068Z,19.52
2023-02-13T00:25:55.203Z,20.60
2023-02-13T00:28:42.906Z,21.30
2023-02-13T00:31:30.149Z,21.70
2023-02-13T00:34:17.326Z,20.77
2023-02-13T00:37:04.444Z,21.02
2023-02-13T00:39:51.504Z,19.80
2023-02-13T00:42:38.572Z,20.25
2023-02-13T00:45:25.764Z,19.27
2023-02-13T00:48:12.912Z,20.60
2023-02-13T00:51:00.702Z,18.73
2023-02-13T00:53:47.956Z,19.23
2023-02-13T00:56:35.133Z,18.15
2023-02-13T00:59:22.197Z,20.75
2023-02-13T01:02:09.360Z,20.75
2023-02-13T01:04:56.450Z,21.17
2023-02-13T01:07:43.668Z,21.48
2023-02-13T01:10:30.776Z,20.45
2023-02-13T01:13:21.133Z,21.25
2023-02-13T01:16:08.667Z,20.85
2023-02-13T01:18:55.949Z,19.75
2023-02-13T01:21:44.377Z,19.38
2023-02-13T01:24:33.376Z,19.73
2023-02-13T01:27:20.438Z,19.63
2023-02-13T01:30:13.634Z,18.70
2023-02-13T01:33:00.682Z,18.45
2023-02-13T01:35:47.714Z,18.40
2023-02-13T01:38:34.818Z,17.83
2023-02-13T01:41:22.280Z,18.83
2023-02-13T01:44:47.849Z,20.20
2023-02-13T01:47:48.106Z,20.23
2023-02-13T01:53:32.364Z,18.73
2023-02-13T01:56:28.792Z,21.02
2023-02-13T01:59:20.264Z,20.13
2023-02-13T02:02:07.873Z,19.83
2023-02-13T02:04:56.145Z,22.45
2023-02-13T02:07:43.436Z,21.52
2023-02-13T02:10:32.671Z,20.42
2023-02-13T02:13:21.353Z,21.73
2023-02-13T02:16:08.638Z,21.10
2023-02-13T02:18:56.167Z,21.75
2023-02-13T02:21:47.261Z,21.42
2023-02-13T02:24:46.098Z,20.60
2023-02-13T02:28:04.866Z,19.52
2023-02-13T02:31:19.657Z,19.60
2023-02-13T02:34:28.161Z,19.55
2023-02-13T02:37:39.975Z,20.38
2023-02-13T02:40:33.820Z,19.38
2023-02-13T02:43:29.338Z,20.27
2023-02-13T02:46:35.901Z,19.83
2023-02-13T02:49:42.000Z,19.88
2023-02-13T02:53:05.240Z,19.42
2023-02-13T02:56:14.198Z,19.80
2023-02-13T02:59:31.804Z,18.85
2023-02-13T03:02:48.199Z,20.60
2023-02-13T03:05:57.773Z,17.98
2023-02-13T03:09:12.917Z,18.98
2023-02-13T03:12:19.781Z,19.48
2023-02-13T03:15:07.539Z,19.05
2023-02-13T03:18:13.937Z,19.42
2023-02-13T03:21:32.385Z,20.70
2023-02-13T03:24:33.887Z,19.15
2023-02-13T03:27:57.577Z,21.45
2023-02-13T03:31:15.791Z,18.30
2023-02-13T03:34:23.518Z,20.05
2023-02-13T03:37:32.659Z,18.15
2023-02-13T03:40:29.780Z,18.27
2023-02-13T03:43:19.129Z,17.25
2023-02-13T03:46:07.330Z,16.50
2023-02-13T03:49:15.248Z,16.52
2023-02-13T03:52:11.836Z,17.08
2023-02-13T03:55:25.827Z,17.55
2023-02-13T03:58:42.026Z,15.85
2023-02-13T04:01:32.866Z,14.00
2023-02-13T04:04:42.038Z,7.05
2023-02-13T04:07:32.877Z,7.90
2023-02-13T04:10:20.798Z,7.90
2023-02-13T04:13:07.826Z,15.18
2023-02-13T04:16:01.304Z,15.13
2023-02-13T04:18:49.893Z,14.52
2023-02-13T04:21:40.471Z,15.38
2023-02-13T04:24:28.040Z,15.63
2023-02-13T04:27:17.432Z,14.52
2023-02-13T04:30:05.414Z,14.75
2023-02-13T04:32:53.066Z,13.77
2023-02-13T04:35:40.148Z,13.70
2023-02-13T04:38:27.166Z,13.55
2023-02-13T04:41:14.347Z,13.60
2023-02-13T04:44:01.338Z,12.65
2023-02-13T04:46:48.458Z,10.75
2023-02-13T04:49:35.497Z,12.23
2023-02-13T04:52:22.578Z,12.05
2023-02-13T04:55:09.703Z,12.25
2023-02-13T04:57:57.187Z,12.30
2023-02-13T05:00:44.275Z,10.90
2023-02-13T05:03:31.363Z,13.10
2023-02-13T05:06:18.395Z,11.73
2023-02-13T05:09:05.413Z,11.50
2023-02-13T05:11:55.270Z,10.82
2023-02-13T05:14:42.379Z,9.77
2023-02-13T05:17:29.374Z,9.85
2023-02-13T05:20:16.771Z,8.45
2023-02-13T05:23:22.485Z,7.05
2023-02-13T05:26:09.622Z,6.80
2023-02-13T05:29:15.557Z,6.65
2023-02-13T05:32:02.825Z,7.28
2023-02-13T05:34:49.922Z,8.38
2023-02-13T05:37:37.373Z,7.00
2023-02-13T05:40:24.528Z,6.95
2023-02-13T05:43:11.589Z,6.03
2023-02-13T05:46:05.976Z,6.20
2023-02-13T05:48:53.349Z,6.93
2023-02-13T05:51:40.391Z,6.03
2023-02-13T05:54:27.514Z,7.00
2023-02-13T05:57:14.603Z,6.88
2023-02-13T06:00:01.879Z,7.50
2023-02-13T06:02:48.973Z,7.55
2023-02-13T06:05:36.214Z,7.95
2023-02-13T06:08:24.212Z,7.60
2023-02-13T06:11:11.657Z,6.93
2023-02-13T06:13:58.658Z,7.45
2023-02-13T06:16:45.733Z,6.82
2023-02-13T06:19:32.739Z,7.43
2023-02-13T06:22:19.775Z,6.43
2023-02-13T06:25:06.969Z,7.45
2023-02-13T06:27:54.104Z,7.00
2023-02-13T06:30:41.191Z,7.35
2023-02-13T06:33:28.234Z,7.72
2023-02-13T06:36:15.249Z,7.72
2023-02-13T06:39:02.354Z,7.53
2023-02-13T06:41:49.426Z,7.03
2023-02-13T06:44:36.493Z,7.75
2023-02-13T06:47:23.504Z,7.05
2023-02-13T06:50:12.171Z,7.22
2023-02-13T06:53:00.746Z,7.65
2023-02-13T06:55:47.822Z,7.22
2023-02-13T06:58:35.009Z,6.65
2023-02-13T07:01:22.129Z,7.47
2023-02-13T07:04:09.184Z,7.40
2023-02-13T07:06:57.188Z,8.07
2023-02-13T07:09:44.152Z,8.63
2023-02-13T07:12:33.682Z,8.52
2023-02-13T07:15:20.728Z,8.10
2023-02-13T07:18:08.045Z,7.78
2023-02-13T07:20:55.255Z,9.05
2023-02-13T07:23:42.527Z,8.93
2023-02-13T07:26:29.788Z,8.68
2023-02-13T07:29:17.634Z,9.00
2023-02-13T07:32:05.386Z,9.07
2023-02-13T07:35:01.543Z,9.65
2023-02-13T07:37:49.283Z,8.30
2023-02-13T07:40:36.363Z,8.60
2023-02-13T07:43:23.517Z,10.07
2023-02-13T07:46:10.871Z,9.52
2023-02-13T07:48:57.959Z,9.57
2023-02-13T07:51:45.047Z,9.02
2023-02-13T07:54:32.429Z,9.25
2023-02-13T07:57:19.624Z,9.77
2023-02-13T08:00:07.466Z,9.38
2023-02-13T08:02:54.629Z,9.20
2023-02-13T08:05:41.801Z,9.32
2023-02-13T08:08:28.947Z,8.60
2023-02-13T08:11:51.848Z,9.15
2023-02-13T08:14:38.942Z,8.50
2023-02-13T08:17:26.052Z,9.05
2023-02-13T08:20:13.159Z,8.18
2023-02-13T08:23:05.010Z,8.90
2023-02-13T08:25:53.559Z,8.35
2023-02-13T08:28:41.965Z,8.35
2023-02-13T08:31:29.309Z,7.97
2023-02-13T08:34:16.536Z,7.97
2023-02-13T08:37:04.252Z,8.65
2023-02-13T08:39:51.623Z,8.60
2023-02-13T08:42:39.345Z,8.07
2023-02-13T08:45:26.370Z,8.63
2023-02-13T08:48:13.484Z,8.43
2023-02-13T08:51:00.615Z,7.90
2023-02-13T08:53:47.690Z,7.68
2023-02-13T08:56:35.276Z,7.60
2023-02-13T08:59:22.538Z,7.40
2023-02-13T09:02:11.896Z,7.90
2023-02-13T09:04:59.039Z,8.25
2023-02-13T09:07:46.187Z,10.10
2023-02-13T09:10:33.597Z,9.65
2023-02-13T09:13:20.648Z,8.15
2023-02-13T09:16:08.742Z,6.93
2023-02-13T09:18:55.798Z,6.85
2023-02-13T09:21:42.924Z,7.30
2023-02-13T09:24:29.981Z,6.63
2023-02-13T09:27:17.087Z,6.75
2023-02-13T09:30:04.402Z,6.78
2023-02-13T09:32:55.325Z,5.72
2023-02-13T09:35:43.952Z,4.82
2023-02-13T09:38:31.112Z,5.95
2023-02-13T09:41:34.402Z,5.65
2023-02-13T09:44:43.339Z,4.90
2023-02-13T09:47:34.677Z,5.15
2023-02-13T09:50:29.789Z,5.72
2023-02-13T09:53:22.360Z,5.65
2023-02-13T09:56:28.409Z,5.38
2023-02-13T09:59:44.684Z,5.20
2023-02-13T10:02:50.607Z,5.75
2023-02-13T10:05:52.451Z,5.20
2023-02-13T10:09:01.713Z,5.38
2023-02-13T10:12:12.997Z,5.38
2023-02-13T10:15:21.875Z,5.10
2023-02-13T10:18:19.687Z,5.30
2023-02-13T10:21:10.309Z,5.68
2023-02-13T10:24:10.037Z,5.88
2023-02-13T10:27:00.278Z,5.65
2023-02-13T10:30:05.391Z,5.68
2023-02-13T10:33:19.204Z,6.10
2023-02-13T10:36:09.309Z,6.20
2023-02-13T10:39:05.571Z,7.10
2023-02-13T10:41:58.023Z,7.43
2023-02-13T10:44:48.201Z,6.43
2023-02-13T10:50:58.724Z,5.30
2023-02-13T10:54:18.166Z,4.63
2023-02-13T10:57:24.742Z,5.10
2023-02-13T11:00:17.955Z,4.70
2023-02-13T11:03:05.072Z,4.70
2023-02-13T11:05:54.024Z,4.53
2023-02-13T11:08:44.730Z,5.22
2023-02-13T11:11:36.590Z,4.95
2023-02-13T11:14:26.856Z,5.13
2023-02-13T11:17:19.027Z,6.10
2023-02-13T11:20:26.075Z,5.18
2023-02-13T11:23:31.089Z,5.15
2023-02-13T11:26:30.188Z,5.35
2023-02-13T11:29:29.994Z,6.40
2023-02-13T11:32:17.267Z,5.53
2023-02-13T11:35:27.740Z,5.57
2023-02-13T11:38:20.360Z,5.40
2023-02-13T11:41:15.442Z,5.45
2023-02-13T11:44:04.905Z,5.68
2023-02-13T11:46:54.492Z,6.47
2023-02-13T11:49:46.741Z,6.20
2023-02-13T11:52:37.427Z,6.07
2023-02-13T11:55:31.668Z,5.72
2023-02-13T11:58:25.445Z,5.97
2023-02-13T12:01:21.865Z,5.80
2023-02-13T12:04:22.217Z,6.07
2023-02-13T12:07:22.231Z,6.07
2023-02-13T12:10:21.176Z,6.68
2023-02-13T12:13:33.856Z,5.88
2023-02-13T12:16:34.205Z,6.35
2023-02-13T12:19:34.050Z,6.38
2023-02-13T12:22:29.956Z,6.85
2023-02-13T12:25:25.101Z,5.32
2023-02-13T12:28:28.012Z,7.28
2023-02-13T12:31:33.258Z,6.55
2023-02-13T12:34:32.247Z,7.03
2023-02-13T12:37:35.889Z,6.30
2023-02-13T12:40:34.762Z,6.88
2023-02-13T12:43:40.274Z,7.03
2023-02-13T12:46:47.001Z,6.82
2023-02-13T12:49:55.912Z,8.02
2023-02-13T12:53:20.397Z,7.57
2023-02-13T12:56:23.529Z,7.20
2023-02-13T12:59:36.086Z,6.82
2023-02-13T13:02:52.044Z,7.85
2023-02-13T13:06:12.155Z,7.65
2023-02-13T13:09:05.938Z,7.32
2023-02-13T13:11:59.021Z,6.65
2023-02-13T13:14:58.221Z,6.70
2023-02-13T13:18:05.498Z,7.17
2023-02-13T13:20:58.584Z,7.28
2023-02-13T13:23:51.635Z,7.35
2023-02-13T13:29:26.534Z,6.45
2023-02-13T13:32:21.744Z,6.78
2023-02-13T13:35:16.001Z,7.45
2023-02-13T13:38:11.551Z,6.88
2023-02-13T13:41:24.930Z,7.43
2023-02-13T13:44:20.927Z,7.85
2023-02-13T13:47:16.644Z,7.90
2023-02-13T13:50:07.127Z,7.75
2023-02-13T13:53:09.396Z,7.63
2023-02-13T13:55:56.611Z,8.07
2023-02-13T13:58:46.023Z,8.20
2023-02-13T14:01:33.189Z,9.43
2023-02-13T14:04:32.074Z,8.70
2023-02-13T14:07:24.636Z,9.00
2023-02-13T14:10:35.092Z,9.60
2023-02-13T14:13:36.470Z,10.68
2023-02-13T14:16:46.350Z,10.73
2023-02-13T14:19:38.470Z,10.15
2023-02-13T14:22:36.469Z,9.98
2023-02-13T14:25:28.157Z,10.98
2023-02-13T14:28:23.799Z,10.30
2023-02-13T14:31:22.671Z,11.18
2023-02-13T14:34:23.259Z,10.35
2023-02-13T14:37:23.099Z,10.88
2023-02-13T14:40:27.851Z,11.07
2023-02-13T14:43:37.133Z,10.48
2023-02-13T14:46:51.498Z,9.95
2023-02-13T14:49:42.584Z,10.90
2023-02-13T14:52:35.409Z,12.57
2023-02-13T14:55:40.575Z,12.20
2023-02-13T14:58:33.925Z,11.85
2023-02-13T15:01:30.347Z,11.48
2023-02-13T15:04:29.953Z,12.48
2023-02-13T15:07:24.882Z,11.45
2023-02-13T15:10:49.716Z,12.77
2023-02-13T15:13:41.090Z,12.00
2023-02-13T15:16:28.285Z,12.63
2023-02-13T15:19:20.789Z,11.68
2023-02-13T15:22:08.191Z,12.30
2023-02-13T15:24:55.290Z,11.80
2023-02-13T15:27:44.147Z,11.25
2023-02-13T15:30:33.318Z,11.50
2023-02-13T15:33:22.238Z,11.20
2023-02-13T15:36:18.235Z,10.80
2023-02-13T15:39:15.720Z,10.43
2023-02-13T15:42:03.949Z,10.80
2023-02-13T15:44:56.563Z,11.57
2023-02-13T15:47:59.681Z,11.63
2023-02-13T15:50:49.998Z,10.63
2023-02-13T15:53:50.976Z,10.38
2023-02-13T15:59:37.332Z,11.40
2023-02-13T16:02:48.214Z,10.30
2023-02-13T16:05:41.668Z,10.02
2023-02-13T16:08:38.488Z,10.48
2023-02-13T16:11:38.740Z,10.38
2023-02-13T16:14:28.760Z,10.45
2023-02-13T16:17:30.132Z,10.85
2023-02-13T16:20:22.822Z,10.10
2023-02-13T16:23:20.151Z,10.88
2023-02-13T16:26:15.931Z,10.38
2023-02-13T16:29:03.641Z,10.25
2023-02-13T16:31:52.654Z,10.82
2023-02-13T16:34:40.207Z,9.95
2023-02-13T16:37:32.656Z,8.77
2023-02-13T16:40:32.371Z,9.55
2023-02-13T16:43:46.334Z,10.15
2023-02-13T16:46:40.402Z,9.00
2023-02-13T16:49:30.764Z,9.57
2023-02-13T16:52:24.371Z,9.50
2023-02-13T16:55:23.061Z,10.02
2023-02-13T16:58:16.051Z,10.35
2023-02-13T17:01:05.387Z,9.10
2023-02-13T17:03:55.636Z,8.52
2023-02-13T17:09:30.778Z,8.77
2023-02-13T17:12:19.793Z,8.98
2023-02-13T17:15:13.837Z,10.38
2023-02-13T17:18:01.806Z,8.52
2023-02-13T17:20:50.285Z,7.88
2023-02-13T17:23:38.377Z,9.00
2023-02-13T17:26:26.093Z,8.10
2023-02-13T17:29:16.799Z,8.52
2023-02-13T17:32:05.036Z,8.52
2023-02-13T17:34:53.321Z,7.53
2023-02-13T17:37:42.881Z,7.75
2023-02-13T17:40:32.295Z,9.27
2023-02-13T17:43:21.029Z,10.30
2023-02-13T17:46:10.338Z,7.95
2023-02-13T17:48:58.177Z,9.52
2023-02-13T17:51:46.102Z,10.48
2023-02-13T17:54:33.833Z,10.68
2023-02-13T17:57:21.615Z,11.55
2023-02-13T18:00:10.334Z,11.90
2023-02-13T18:03:03.015Z,10.95
2023-02-13T18:05:51.401Z,11.35
2023-02-13T18:08:39.285Z,11.60
2023-02-13T18:11:27.178Z,12.02
2023-02-13T18:14:18.049Z,11.18
2023-02-13T18:17:05.885Z,12.10
2023-02-13T18:19:56.858Z,11.30
2023-02-13T18:22:45.069Z,11.85
2023-02-13T18:25:33.499Z,12.10
2023-02-13T18:28:21.428Z,11.43
2023-02-13T18:31:12.443Z,12.30
2023-02-13T18:34:01.328Z,11.60
2023-02-13T18:36:50.048Z,11.32
2023-02-13T18:39:38.924Z,10.82
2023-02-13T18:42:27.094Z,10.68
2023-02-13T18:45:18.181Z,11.10
2023-02-13T18:48:08.894Z,11.13
2023-02-13T18:51:00.061Z,10.85
2023-02-13T18:53:50.265Z,10.50
2023-02-13T18:56:40.954Z,10.55
2023-02-13T18:59:28.624Z,11.25
2023-02-13T19:05:17.804Z,11.23
2023-02-13T19:08:06.354Z,11.40
2023-02-13T19:10:54.230Z,11.60
2023-02-13T19:13:43.257Z,11.35
2023-02-13T19:16:33.024Z,11.70
2023-02-13T19:19:24.156Z,12.40
2023-02-13T19:22:12.282Z,12.43
2023-02-13T19:25:00.533Z,13.07
2023-02-13T19:27:49.439Z,11.95
2023-02-13T19:30:37.715Z,12.00
2023-02-13T19:33:25.952Z,12.70
2023-02-13T19:36:19.875Z,12.60
2023-02-13T19:39:09.761Z,12.35
2023-02-13T19:41:58.535Z,13.45
2023-02-13T19:44:48.204Z,12.70
2023-02-13T19:47:37.303Z,12.73
2023-02-13T19:50:25.499Z,12.70
2023-02-13T19:53:13.914Z,13.38
2023-02-13T19:56:11.176Z,12.77
2023-02-13T19:58:59.665Z,12.52
2023-02-13T20:01:48.087Z,12.18
2023-02-13T20:04:38.090Z,13.00
2023-02-13T20:07:26.672Z,13.57
2023-02-13T20:10:15.261Z,12.13
2023-02-13T20:13:04.901Z,11.82
2023-02-13T20:15:57.392Z,11.82
2023-02-13T20:18:50.956Z,12.20
2023-02-13T20:21:41.879Z,11.88
2023-02-13T20:24:31.559Z,17.27
2023-02-13T20:27:19.830Z,33.58
2023-02-13T20:30:09.860Z,37.85
2023-02-13T20:32:58.318Z,32.20
2023-02-13T20:35:46.920Z,19.55
2023-02-13T20:38:35.203Z,17.15
2023-02-13T20:41:27.597Z,13.52
2023-02-13T20:44:17.630Z,13.90
2023-02-13T20:47:05.788Z,13.18
2023-02-13T20:49:56.523Z,17.27
2023-02-13T20:52:46.363Z,13.15
2023-02-13T20:55:34.058Z,14.57
2023-02-13T20:58:22.481Z,15.30
2023-02-13T21:01:18.040Z,15.80
2023-02-13T21:04:05.975Z,12.63
2023-02-13T21:06:54.323Z,13.48
2023-02-13T21:09:41.766Z,14.68
2023-02-13T21:12:29.680Z,15.27
2023-02-13T21:15:19.442Z,17.02
2023-02-13T21:18:07.169Z,15.68
2023-02-13T21:20:55.677Z,31.02
2023-02-13T21:23:43.294Z,17.77
2023-02-13T21:26:31.356Z,17.30
2023-02-13T21:29:19.514Z,15.38
2023-02-13T21:32:07.666Z,15.27
2023-02-13T21:34:58.407Z,17.65
2023-02-13T21:37:46.124Z,15.25
2023-02-13T21:40:33.301Z,17.15
2023-02-13T21:43:20.926Z,18.27
2023-02-13T21:46:18.311Z,15.20
2023-02-13T21:49:07.567Z,15.45
2023-02-13T21:51:55.069Z,14.80
2023-02-13T21:54:42.111Z,17.23
2023-02-13T21:57:29.422Z,17.80
2023-02-13T22:00:16.957Z,17.55
2023-02-13T22:03:04.213Z,20.45
2023-02-13T22:05:51.472Z,23.92
2023-02-13T22:08:39.366Z,16.52
2023-02-13T22:11:27.257Z,18.65
2023-02-13T22:14:17.282Z,19.13
2023-02-13T22:17:04.713Z,20.17
2023-02-13T22:19:51.909Z,21.15
2023-02-13T22:22:38.979Z,18.30
2023-02-13T22:25:26.198Z,19.17
2023-02-13T22:28:13.231Z,23.15
2023-02-13T22:31:01.057Z,16.65
2023-02-13T22:33:55.363Z,16.90
2023-02-13T22:36:49.004Z,16.73
2023-02-13T22:39:36.112Z,15.88
2023-02-13T22:42:23.257Z,16.38
2023-02-13T22:45:10.240Z,16.90
2023-02-13T22:47:57.890Z,17.88
2023-02-13T22:50:45.069Z,18.10
2023-02-13T22:53:33.195Z,17.20
2023-02-13T22:56:20.328Z,18.13
2023-02-13T22:59:07.401Z,20.20
2023-02-13T23:01:54.459Z,20.27
2023-02-13T23:04:41.565Z,18.63
2023-02-13T23:07:28.846Z,19.50
2023-02-13T23:10:19.378Z,20.45
2023-02-13T23:13:10.845Z,19.30
2023-02-13T23:15:57.949Z,18.35
2023-02-13T23:18:45.408Z,20.63
2023-02-13T23:21:32.494Z,22.55
2023-02-13T23:24:20.727Z,33.88
2023-02-13T23:27:07.813Z,29.73
2023-02-13T23:29:54.899Z,32.95
2023-02-13T23:32:42.050Z,40.90
2023-02-13T23:35:29.069Z,44.72
2023-02-13T23:38:16.120Z,30.48
2023-02-13T23:41:09.647Z,31.25
2023-02-13T23:43:56.744Z,25.23
2023-02-13T23:46:44.011Z,32.70
2023-02-13T23:49:31.251Z,30.23
2023-02-13T23:52:18.432Z,32.75
2023-02-13T23:55:05.974Z,31.00
2023-02-13T23:57:53.105Z,21.85
